• Join FlightAware (Why Join?)
  • Login
  • US Flag 
10:18PM EDT


 

Airport Tracker/Info


-or-


 

Live Flight TrackerFlight Track Log ✈ N547US ✈ 02-May-2012 ✈ KMSY - KATL

Flight Track Log - Related Links

Times and Time Zones

All times are in EDT time to prevent confusion due to time zone crossing. See the N547US flight status page for this flight to view local times or setup timezone preferences in your user account.

Time Position Orientation Groundspeed Altitude Reporting Facility
EDT Latitude Longitude Course Direction KTS MPH feet Rate Location/Type
12:21PM 29.9694 -90.2583 181° South 150 173 1,400  Level Houston Center
12:22PM 29.9258 -90.2589 96° East 195 224 3,400 2,340 Climbing Houston Center
12:23PM 29.9186 -90.1825 89° East 271 312 6,000 2,880 Climbing Houston Center
12:24PM 29.9197 -90.0986 83° East 271 312 9,300 3,120 Climbing Houston Center
12:25PM 29.9292 -90.0050 91° East 277 319 12,300 1,920 Climbing Houston Center
12:26PM 29.9278 -89.8875 89° East 315 362 13,200 2,100 Climbing Houston Center
12:27PM 29.9297 -89.7414 79° East 383 441 16,500 2,700 Climbing Houston Center
12:28PM 29.9531 -89.6067 76° East 408 470 18,700 2,160 Climbing Houston Center
12:29PM 29.9842 -89.4644 73° East 428 493 20,900 2,040 Climbing Houston Center
12:30PM 30.0214 -89.3222 66° East 444 511 22,800 2,100 Climbing Houston Center
12:31PM 30.0753 -89.1817 50° Northeast 466 536 25,200 2,460 Climbing Houston Center
12:32PM 30.1567 -89.0692 47° Northeast 461 531 27,800 1,920 Climbing Houston Center
12:33PM 30.2403 -88.9639 49° Northeast 449 517 29,100 1,260 Climbing Houston Center
12:34PM 30.3236 -88.8533 48° Northeast 444 511 30,400 1,020 Climbing Houston Center
12:35PM 30.4108 -88.7425 48° Northeast 450 518 31,200 900 Climbing Houston Center
12:36PM 30.5003 -88.6267 53° Northeast 460 529 32,300 900 Climbing Houston Center
12:37PM 30.5808 -88.5039 57° Northeast 472 543 33,000 300 Climbing Houston Center
12:38PM 30.6528 -88.3736 59° Northeast 478 550 33,000  Level Houston Center
12:39PM 30.7244 -88.2336 63° Northeast 487 560 33,000  Level Houston Center
12:40PM 30.7856 -88.0961 62° Northeast 487 560 33,000  Level Houston Center
12:41PM 30.8467 -87.9611 56° Northeast 477 549 33,000  Level Houston Center
12:42PM 30.9203 -87.8350 45° Northeast 471 542 33,000  Level Houston Center
12:43PM 31.0131 -87.7250 45° Northeast 466 536 33,000  Level Houston Center
12:45PM 31.2275 -87.4700 46° Northeast 489 563 33,000  Level Atlanta Center
12:46PM 31.3222 -87.3542 45° Northeast 479 551 33,000  Level Atlanta Center
12:47PM 31.4192 -87.2411 46° Northeast 484 557 33,000  Level Atlanta Center
12:48PM 31.5161 -87.1228 46° Northeast 490 564 33,000  Level Atlanta Center
12:49PM 31.6131 -87.0064 48° Northeast 490 564 33,000  Level Atlanta Center
12:50PM 31.7033 -86.8900 46° Northeast 485 558 33,000 -240 Level Atlanta Center
12:51PM 31.8000 -86.7731 46° Northeast 485 558 32,600 -420 Descending Atlanta Center
12:52PM 31.9028 -86.6467 44° Northeast 485 558 32,200 -300 Descending Atlanta Center
12:53PM 31.9925 -86.5439 47° Northeast 494 568 32,000 -120 Descending Atlanta Center
12:54PM 32.0867 -86.4242 48° Northeast 494 568 32,000  Level Atlanta Center
12:55PM 32.1872 -86.2942 48° Northeast 482 555 32,000  Level Atlanta Center
12:56PM 32.2728 -86.1808 46° Northeast 488 562 32,000  Level Atlanta Center
12:57PM 32.3686 -86.0628 46° Northeast 488 562 32,000 -120 Level Atlanta Center
12:58PM 32.4667 -85.9419 47° Northeast 488 562 31,800 -900 Descending Atlanta Center
12:59PM 32.5539 -85.8328 47° Northeast 502 578 30,300 -1,680 Descending Atlanta Center
01:00PM 32.6539 -85.7042 46° Northeast 496 571 28,500 -1,800 Descending Atlanta Center
01:01PM 32.7514 -85.5825 46° Northeast 496 571 26,700 -1,860 Descending Atlanta Center
01:02PM 32.8489 -85.4606 47° Northeast 496 571 24,800 -2,220 Descending Atlanta Center
01:03PM 32.9442 -85.3408 47° Northeast 496 571 22,300 -2,700 Descending Atlanta Center
01:04PM 33.0331 -85.2256 47° Northeast 482 555 19,400 -2,700 Descending Atlanta Center
01:05PM 33.1069 -85.1325 48° Northeast 455 524 16,900 -2,640 Descending Atlanta Center
01:06PM 33.1850 -85.0292 48° Northeast 425 489 14,200 -1,740 Descending Atlanta Center
01:07PM 33.2608 -84.9283 48° Northeast 412 474 13,500 -1,140 Descending Atlanta Center
01:08PM 33.3367 -84.8269 49° Northeast 406 467 12,000 -780 Descending Atlanta Center
01:09PM 33.4103 -84.7256 48° Northeast 411 473 12,000  Level Atlanta Center
01:10PM 33.4797 -84.6342 48° Northeast 392 451 12,000 -60 Level Atlanta Center
01:11PM 33.5386 -84.5547 84° East 334 384 11,900 -600 Descending Atlanta Center
01:12PM 33.5472 -84.4625 92° East 272 313 10,800 -1,440 Descending Atlanta Center
01:13PM 33.5453 -84.3803 83° East 249 287 9,100 -1,860 Descending Atlanta Center
01:14PM 33.5500 -84.3333 90° East 243 280 7,900 -1,980 Descending Atlanta TRACON
01:15PM 33.5500 -84.2500 51° Northeast 242 278 6,000 -1,860 Descending Atlanta TRACON
01:16PM 33.5833 -84.2000 309° West 246 283 4,200 -1,260 Descending Atlanta TRACON
01:17PM 33.6167 -84.2500 270° West 214 246 3,500 -900 Descending Atlanta TRACON
01:18PM 33.6167 -84.3167 270° West 200 230 2,500 -960 Descending Atlanta TRACON
01:19PM 33.6167 -84.3833 270° West 158 182 1,600 -900 Descending Atlanta TRACON